createdAt,value
2019-05-06T00:00:05.284Z,74.82
2019-05-06T00:10:08.813Z,77.41
2019-05-06T00:20:05.748Z,79.15
2019-05-06T00:30:04.991Z,80.21
2019-05-06T00:40:05.105Z,79.08
2019-05-06T00:50:08.916Z,78.14
2019-05-06T01:00:04.584Z,78.52
2019-05-06T01:10:09.459Z,78.96
2019-05-06T01:20:08.763Z,78.66
2019-05-06T01:30:04.808Z,78.65
2019-05-06T01:40:04.476Z,78.70
2019-05-06T01:50:08.712Z,79.31
2019-05-06T02:00:05.288Z,78.48
2019-05-06T02:10:09.335Z,77.18
2019-05-06T02:20:04.538Z,76.50
2019-05-06T02:30:05.978Z,77.26
2019-05-06T02:40:04.657Z,78.35
2019-05-06T02:50:08.389Z,78.72
2019-05-06T03:00:12.460Z,78.59
2019-05-06T03:10:08.951Z,78.88
2019-05-06T03:20:13.533Z,78.75
2019-05-06T03:30:08.234Z,79.17
2019-05-06T03:40:10.139Z,79.16
2019-05-06T03:50:07.570Z,78.62
2019-05-06T04:00:16.533Z,78.66
2019-05-06T04:10:09.083Z,78.86
2019-05-06T04:20:04.552Z,78.10
2019-05-06T04:30:05.996Z,77.32
2019-05-06T04:40:06.323Z,77.28
2019-05-06T04:50:12.913Z,76.82
2019-05-06T05:00:04.992Z,76.44
2019-05-06T05:10:09.032Z,76.12
2019-05-06T05:20:07.860Z,75.16
2019-05-06T05:30:13.094Z,73.61
2019-05-06T05:40:04.423Z,72.84
2019-05-06T05:50:06.267Z,71.01
2019-05-06T06:00:04.519Z,69.82
2019-05-06T06:10:14.492Z,69.77
2019-05-06T06:20:12.627Z,69.50
2019-05-06T06:30:08.157Z,67.71
2019-05-06T06:40:03.230Z,66.14
2019-05-06T06:50:08.622Z,60.50
2019-05-06T07:00:12.980Z,62.53
2019-05-06T07:10:07.690Z,57.19
2019-05-06T07:20:08.700Z,57.08
2019-05-06T07:30:03.667Z,58.48
2019-05-06T07:40:12.821Z,58.09
2019-05-06T07:50:08.820Z,49.98
2019-05-06T08:00:08.278Z,46.38
2019-05-06T08:10:08.340Z,48.61
2019-05-06T08:20:03.266Z,49.25
2019-05-06T08:30:09.681Z,49.99
2019-05-06T08:40:12.748Z,45.49
2019-05-06T08:50:06.220Z,40.19
2019-05-06T09:00:06.714Z,43.25
2019-05-06T09:10:09.207Z,47.63
2019-05-06T09:20:07.681Z,43.33
2019-05-06T09:30:08.397Z,42.82
2019-05-06T09:40:03.393Z,42.89
2019-05-06T09:50:13.571Z,42.53
2019-05-06T10:00:05.549Z,41.12
2019-05-06T10:10:11.328Z,41.30
2019-05-06T10:20:09.626Z,41.38
2019-05-06T10:30:13.085Z,33.97
2019-05-06T10:40:06.163Z,37.16
2019-05-06T10:50:02.970Z,38.17
2019-05-06T11:00:08.344Z,40.43
2019-05-06T11:10:27.852Z,41.27
2019-05-06T11:20:10.228Z,39.28
2019-05-06T11:30:09.131Z,40.37
2019-05-06T11:40:02.935Z,36.98
2019-05-06T11:50:07.607Z,37.32
2019-05-06T12:00:07.133Z,37.01
2019-05-06T12:10:17.543Z,37.49
2019-05-06T12:20:03.486Z,41.00
2019-05-06T12:30:08.694Z,40.26
2019-05-06T12:40:04.025Z,40.38
2019-05-06T12:50:07.169Z,40.56
2019-05-06T13:00:13.437Z,40.48
2019-05-06T13:10:06.649Z,42.60
2019-05-06T13:20:07.363Z,43.26
2019-05-06T13:30:08.902Z,44.71
2019-05-06T13:40:02.933Z,46.28
2019-05-06T13:50:09.325Z,41.03
2019-05-06T14:00:13.273Z,39.16
2019-05-06T14:10:13.770Z,39.14
2019-05-06T14:20:06.171Z,37.33
2019-05-06T14:30:05.193Z,35.30
2019-05-06T14:40:12.671Z,34.22
2019-05-06T14:50:07.541Z,37.48
2019-05-06T15:00:12.745Z,40.57
2019-05-06T15:10:23.199Z,41.75
2019-05-06T15:20:03.539Z,45.30
2019-05-06T15:30:07.235Z,53.05
2019-05-06T15:40:06.411Z,52.27
2019-05-06T15:50:13.346Z,52.32
2019-05-06T16:00:07.939Z,53.93
2019-05-06T16:10:07.585Z,50.55
2019-05-06T16:20:07.823Z,51.60
2019-05-06T16:30:13.593Z,49.34
2019-05-06T16:40:08.616Z,46.25
2019-05-06T16:50:12.871Z,47.40
2019-05-06T17:00:08.351Z,48.71
2019-05-06T17:10:06.985Z,49.89
2019-05-06T17:20:07.080Z,51.48
2019-05-06T17:30:12.326Z,50.25
2019-05-06T17:40:14.535Z,52.26
2019-05-06T17:50:03.389Z,54.34
2019-05-06T18:00:06.588Z,57.53
2019-05-06T18:10:07.243Z,57.94
2019-05-06T18:20:14.185Z,58.34
2019-05-06T18:30:29.937Z,59.75
2019-05-06T18:40:08.751Z,60.79
2019-05-06T18:50:12.311Z,61.68
2019-05-06T19:00:07.936Z,62.35
2019-05-06T19:10:03.954Z,63.15
2019-05-06T19:20:09.076Z,63.45
2019-05-06T19:30:07.657Z,62.21
2019-05-06T19:40:08.207Z,62.64
2019-05-06T19:50:07.388Z,63.86
2019-05-06T20:00:14.263Z,64.33
2019-05-06T20:10:03.861Z,63.93
2019-05-06T20:20:08.602Z,63.84
2019-05-06T20:30:03.963Z,64.35
2019-05-06T20:40:07.412Z,65.67
2019-05-06T20:50:02.972Z,67.13
2019-05-06T21:00:12.711Z,67.90
2019-05-06T21:10:09.000Z,69.18
2019-05-06T21:20:11.302Z,69.82
2019-05-06T21:30:03.059Z,70.72
2019-05-06T21:40:07.739Z,70.48
2019-05-06T21:50:08.897Z,69.05
2019-05-06T22:00:17.525Z,69.83
2019-05-06T22:10:02.590Z,69.59
2019-05-06T22:20:06.896Z,69.86
2019-05-06T22:30:07.090Z,70.24
2019-05-06T22:40:02.817Z,70.76
2019-05-06T22:50:07.605Z,71.34
2019-05-06T23:00:17.994Z,72.18
2019-05-06T23:10:08.707Z,72.57
2019-05-06T23:20:08.241Z,73.41
2019-05-06T23:30:07.686Z,75.63
2019-05-06T23:40:08.499Z,75.94
2019-05-06T23:50:03.986Z,76.40
